createdAt,value
2024-01-06T00:01:29.200Z,97178.00
2024-01-06T00:04:18.262Z,97178.97
2024-01-06T00:07:06.296Z,97185.84
2024-01-06T00:09:54.935Z,97191.09
2024-01-06T00:12:42.556Z,97190.41
2024-01-06T00:15:30.294Z,97199.34
2024-01-06T00:18:17.938Z,97205.44
2024-01-06T00:21:07.078Z,97209.03
2024-01-06T00:23:56.996Z,97203.06
2024-01-06T00:26:45.236Z,97209.28
2024-01-06T00:29:32.951Z,97212.56
2024-01-06T00:32:20.869Z,97205.81
2024-01-06T00:35:09.503Z,97211.06
2024-01-06T00:37:58.604Z,97214.53
2024-01-06T00:40:46.292Z,97210.09
2024-01-06T00:43:33.765Z,97209.97
2024-01-06T00:46:21.018Z,97217.94
2024-01-06T00:49:08.562Z,97219.88
2024-01-06T00:51:56.312Z,97216.44
2024-01-06T00:54:48.349Z,97227.88
2024-01-06T00:57:36.034Z,97221.78
2024-01-06T01:00:23.804Z,97226.91
2024-01-06T01:03:11.531Z,97225.56
2024-01-06T01:05:59.240Z,97227.78
2024-01-06T01:08:47.138Z,97229.88
2024-01-06T01:11:36.417Z,97236.34
2024-01-06T01:14:24.180Z,97240.22
2024-01-06T01:17:11.664Z,97236.88
2024-01-06T01:19:59.304Z,97241.41
2024-01-06T01:22:46.644Z,97244.28
2024-01-06T01:25:34.101Z,97255.59
2024-01-06T01:28:23.029Z,97244.28
2024-01-06T01:31:11.151Z,97240.97
2024-01-06T01:34:02.473Z,97239.31
2024-01-06T01:36:50.230Z,97237.50
2024-01-06T01:39:37.891Z,97238.63
2024-01-06T01:42:25.624Z,97243.00
2024-01-06T01:45:14.653Z,97244.81
2024-01-06T01:48:02.561Z,97249.09
2024-01-06T01:50:50.649Z,97252.56
2024-01-06T01:53:39.455Z,97242.19
2024-01-06T01:56:28.386Z,97248.38
2024-01-06T01:59:19.792Z,97245.06
2024-01-06T02:02:09.872Z,97245.06
2024-01-06T02:04:58.467Z,97243.28
2024-01-06T02:07:46.501Z,97240.53
2024-01-06T02:10:34.310Z,97239.59
2024-01-06T02:13:21.705Z,97241.34
2024-01-06T02:16:09.240Z,97236.13
2024-01-06T02:18:59.490Z,97238.88
2024-01-06T02:21:51.292Z,97239.72
2024-01-06T02:24:38.884Z,97233.75
2024-01-06T02:27:26.410Z,97236.25
2024-01-06T02:30:14.367Z,97242.34
2024-01-06T02:33:04.049Z,97237.09
2024-01-06T02:35:53.730Z,97241.22
2024-01-06T02:38:42.751Z,97245.50
2024-01-06T02:41:30.577Z,97247.19
2024-01-06T02:44:18.342Z,97249.09
2024-01-06T02:47:06.508Z,97253.38
2024-01-06T02:49:55.707Z,97247.19
2024-01-06T02:52:43.649Z,97251.47
2024-01-06T02:55:32.815Z,97254.06
2024-01-06T02:58:20.533Z,97255.03
2024-01-06T03:01:08.482Z,97255.03
2024-01-06T03:03:56.440Z,97259.44
2024-01-06T03:06:47.609Z,97267.19
2024-01-06T03:09:35.134Z,97261.94
2024-01-06T03:12:24.159Z,97257.50
2024-01-06T03:15:12.545Z,97248.72
2024-01-06T03:18:00.448Z,97260.00
2024-01-06T03:20:48.305Z,97258.09
2024-01-06T03:23:36.193Z,97262.09
2024-01-06T03:26:23.745Z,97260.19
2024-01-06T03:29:13.238Z,97268.06
2024-01-06T03:32:01.040Z,97269.16
2024-01-06T03:34:48.519Z,97266.66
2024-01-06T03:37:36.352Z,97268.44
2024-01-06T03:40:23.986Z,97270.22
2024-01-06T03:43:11.363Z,97271.66
2024-01-06T03:46:01.432Z,97275.34
2024-01-06T03:48:49.226Z,97277.16
2024-01-06T03:51:37.206Z,97272.72
2024-01-06T03:54:25.109Z,97278.94
2024-01-06T03:57:12.764Z,97280.72
2024-01-06T04:00:00.208Z,97285.13
2024-01-06T04:02:49.025Z,97284.28
2024-01-06T04:05:36.588Z,97288.81
2024-01-06T04:08:23.959Z,97298.38
2024-01-06T04:11:11.583Z,97293.13
2024-01-06T04:13:59.603Z,97294.19
2024-01-06T04:16:47.329Z,97302.22
2024-01-06T04:19:36.171Z,97295.41
2024-01-06T04:22:24.254Z,97301.75
2024-01-06T04:25:11.807Z,97294.97
2024-01-06T04:27:59.300Z,97297.84
2024-01-06T04:30:46.902Z,97296.28
2024-01-06T04:33:35.153Z,97296.53
2024-01-06T04:36:24.515Z,97296.84
2024-01-06T04:39:14.004Z,97297.09
2024-01-06T04:42:01.722Z,97293.75
2024-01-06T04:44:49.102Z,97294.00
2024-01-06T04:47:36.482Z,97289.00
2024-01-06T04:50:23.907Z,97292.59
2024-01-06T04:53:12.701Z,97296.88
2024-01-06T04:56:00.585Z,97299.72
2024-01-06T04:58:48.359Z,97300.69
2024-01-06T05:01:36.141Z,97296.41
2024-01-06T05:04:23.841Z,97294.06
2024-01-06T05:07:11.763Z,97297.59
2024-01-06T05:10:00.682Z,97291.69
2024-01-06T05:12:48.243Z,97293.59
2024-01-06T05:15:36.152Z,97295.50
2024-01-06T05:18:24.036Z,97297.41
2024-01-06T05:21:11.792Z,97303.59
2024-01-06T05:23:59.403Z,97304.56
2024-01-06T05:26:48.314Z,97308.13
2024-01-06T05:29:36.096Z,97312.66
2024-01-06T05:32:23.689Z,97321.47
2024-01-06T05:35:11.609Z,97327.69
2024-01-06T05:37:59.433Z,97329.31
2024-01-06T05:40:47.076Z,97335.66
2024-01-06T05:43:35.997Z,97333.16
2024-01-06T05:46:24.200Z,97341.94
2024-01-06T05:49:12.899Z,97336.03
2024-01-06T05:52:00.450Z,97334.47
2024-01-06T05:54:48.713Z,97335.53
2024-01-06T05:57:36.631Z,97343.41
2024-01-06T06:00:25.727Z,97354.09
2024-01-06T06:03:13.454Z,97351.72
2024-01-06T06:06:01.320Z,97361.38
2024-01-06T06:08:49.719Z,97368.50
2024-01-06T06:11:37.892Z,97372.91
2024-01-06T06:14:29.131Z,97377.56
2024-01-06T06:17:19.603Z,97390.78
2024-01-06T06:20:08.747Z,97397.91
2024-01-06T06:22:56.359Z,97394.56
2024-01-06T06:25:44.005Z,97400.03
2024-01-06T06:28:31.378Z,97400.31
2024-01-06T06:31:18.906Z,97407.44
2024-01-06T06:34:09.256Z,97407.53
2024-01-06T06:36:57.064Z,97406.94
2024-01-06T06:39:46.079Z,97409.78
2024-01-06T06:42:33.841Z,97410.97
2024-01-06T06:45:23.836Z,97419.06
2024-01-06T06:48:12.854Z,97414.78
2024-01-06T06:51:02.095Z,97416.91
2024-01-06T06:53:51.276Z,97426.69
2024-01-06T06:56:38.928Z,97430.22
2024-01-06T06:59:26.446Z,97437.38
2024-01-06T07:02:14.501Z,97426.31
2024-01-06T07:05:08.068Z,97430.69
2024-01-06T07:07:57.375Z,97432.72
2024-01-06T07:10:47.463Z,97429.50
2024-01-06T07:13:37.027Z,97436.66
2024-01-06T07:16:24.971Z,97440.19
2024-01-06T07:19:13.105Z,97447.22
2024-01-06T07:22:02.571Z,97449.94
2024-01-06T07:24:54.634Z,97456.97
2024-01-06T07:27:42.278Z,97472.75
2024-01-06T07:30:30.718Z,97481.44
2024-01-06T07:33:18.318Z,97465.75
2024-01-06T07:36:07.773Z,97475.38
2024-01-06T07:38:56.328Z,97473.47
2024-01-06T07:41:46.130Z,97474.19
2024-01-06T07:44:35.292Z,97472.28
2024-01-06T07:47:22.952Z,97479.91
2024-01-06T07:50:14.332Z,97470.19
2024-01-06T07:53:02.849Z,97477.75
2024-01-06T07:55:50.693Z,97482.75
2024-01-06T07:58:39.513Z,97486.00
2024-01-06T08:01:27.055Z,97491.09
2024-01-06T08:04:14.770Z,97496.84
2024-01-06T08:07:03.249Z,97489.56
2024-01-06T08:09:51.164Z,97493.50
2024-01-06T08:12:38.709Z,97510.66
2024-01-06T08:15:27.688Z,97508.50
2024-01-06T08:18:15.796Z,97511.63
2024-01-06T08:21:03.783Z,97513.03
2024-01-06T08:23:51.310Z,97508.28
2024-01-06T08:26:38.895Z,97514.59
2024-01-06T08:29:26.550Z,97516.88
2024-01-06T08:32:16.226Z,97518.91
2024-01-06T08:35:04.783Z,97520.88
2024-01-06T08:37:52.332Z,97520.31
2024-01-06T08:40:40.177Z,97513.50
2024-01-06T08:43:27.862Z,97518.25
2024-01-06T08:46:16.527Z,97526.38
2024-01-06T08:49:05.626Z,97521.34
2024-01-06T08:51:53.227Z,97518.22
2024-01-06T08:54:40.983Z,97527.53
2024-01-06T08:57:28.520Z,97528.97
2024-01-06T09:00:18.719Z,97532.88
2024-01-06T09:03:08.088Z,97534.41
2024-01-06T09:05:58.897Z,97540.13
2024-01-06T09:08:46.598Z,97541.16
2024-01-06T09:11:34.208Z,97536.97
2024-01-06T09:14:21.793Z,97540.50
2024-01-06T09:17:09.548Z,97540.13
2024-01-06T09:19:57.017Z,97541.56
2024-01-06T09:22:45.703Z,97547.13
2024-01-06T09:25:33.213Z,97548.53
2024-01-06T09:28:22.525Z,97548.03
2024-01-06T09:31:11.093Z,97544.19
2024-01-06T09:34:04.090Z,97546.31
2024-01-06T09:36:51.790Z,97547.75
2024-01-06T09:39:41.111Z,97558.69
2024-01-06T09:42:29.072Z,97561.78
2024-01-06T09:45:17.085Z,97556.09
2024-01-06T09:48:14.261Z,97560.19
2024-01-06T09:51:06.008Z,97563.25
2024-01-06T09:54:01.325Z,97559.59
2024-01-06T09:56:52.255Z,97564.53
2024-01-06T09:59:43.577Z,97563.19
2024-01-06T10:02:32.806Z,97571.75
2024-01-06T10:05:21.862Z,97565.38
2024-01-06T10:08:09.507Z,97567.34
2024-01-06T10:10:56.836Z,97560.44
2024-01-06T10:13:45.540Z,97566.69
2024-01-06T10:16:33.420Z,97573.50
2024-01-06T10:19:22.230Z,97567.72
2024-01-06T10:22:10.125Z,97575.19
2024-01-06T10:25:00.040Z,97564.69
2024-01-06T10:27:47.419Z,97567.47
2024-01-06T10:30:39.696Z,97569.28
2024-01-06T10:33:28.944Z,97563.91
2024-01-06T10:36:23.289Z,97571.25
2024-01-06T10:39:11.153Z,97561.81
2024-01-06T10:42:00.737Z,97573.63
2024-01-06T10:44:50.400Z,97569.47
2024-01-06T10:47:41.374Z,97563.78
2024-01-06T10:50:31.248Z,97570.28
2024-01-06T10:53:23.572Z,97570.00
2024-01-06T10:56:12.612Z,97567.75
2024-01-06T10:59:01.960Z,97568.19
2024-01-06T11:01:51.295Z,97573.72
2024-01-06T11:04:41.688Z,97579.03
2024-01-06T11:07:30.534Z,97573.03
2024-01-06T11:10:20.468Z,97570.41
2024-01-06T11:13:13.470Z,97573.34
2024-01-06T11:16:04.350Z,97565.00
2024-01-06T11:18:52.190Z,97572.09
2024-01-06T11:21:41.684Z,97575.97
2024-01-06T11:24:40.112Z,97571.38
2024-01-06T11:27:30.814Z,97573.19
2024-01-06T11:30:24.490Z,97572.22
2024-01-06T11:33:12.722Z,97578.31
2024-01-06T11:36:03.956Z,97572.91
2024-01-06T11:38:54.110Z,97573.47
2024-01-06T11:41:51.767Z,97568.09
2024-01-06T11:44:40.533Z,97573.34
2024-01-06T11:47:32.104Z,97578.31
2024-01-06T11:50:20.184Z,97569.44
2024-01-06T11:53:11.157Z,97568.34
2024-01-06T11:56:03.241Z,97555.88
2024-01-06T11:58:51.095Z,97562.50
2024-01-06T12:01:39.864Z,97555.44
2024-01-06T12:04:28.766Z,97546.56
2024-01-06T12:07:17.862Z,97539.22
2024-01-06T12:10:08.884Z,97539.50
2024-01-06T12:13:04.656Z,97535.34
2024-01-06T12:15:52.439Z,97531.88
2024-01-06T12:18:43.987Z,97538.06
2024-01-06T12:21:31.663Z,97540.16
2024-01-06T12:24:21.619Z,97535.44
2024-01-06T12:27:12.033Z,97530.56
2024-01-06T12:30:01.590Z,97541.66
2024-01-06T12:32:51.546Z,97527.50
2024-01-06T12:35:39.996Z,97540.25
2024-01-06T12:38:28.829Z,97528.75
2024-01-06T12:41:17.304Z,97533.03
2024-01-06T12:44:05.277Z,97538.31
2024-01-06T12:46:56.814Z,97529.13
2024-01-06T12:49:45.054Z,97537.75
2024-01-06T12:52:34.912Z,97534.13
2024-01-06T12:55:22.591Z,97528.00
2024-01-06T12:58:10.759Z,97523.72
2024-01-06T13:00:58.383Z,97533.28
2024-01-06T13:03:47.840Z,97524.56
2024-01-06T13:06:35.801Z,97524.72
2024-01-06T13:09:27.268Z,97524.56
2024-01-06T13:12:16.592Z,97534.13
2024-01-06T13:15:04.593Z,97525.50
2024-01-06T13:17:53.990Z,97526.34
2024-01-06T13:20:44.249Z,97529.84
2024-01-06T13:23:32.092Z,97536.75
2024-01-06T13:26:19.709Z,97549.09
2024-01-06T13:29:07.300Z,97545.78
2024-01-06T13:31:54.875Z,97546.59
2024-01-06T13:34:43.219Z,97552.16
2024-01-06T13:37:33.229Z,97553.97
2024-01-06T13:40:21.711Z,97556.63
2024-01-06T13:43:16.753Z,97557.44
2024-01-06T13:46:05.118Z,97557.44
2024-01-06T13:48:53.097Z,97560.19
2024-01-06T13:51:41.383Z,97568.44
2024-01-06T13:54:31.398Z,97571.19
2024-01-06T13:57:18.962Z,97563.28
2024-01-06T14:00:07.974Z,97566.22
2024-01-06T14:02:56.100Z,97571.47
2024-01-06T14:05:43.982Z,97567.88
2024-01-06T14:08:31.903Z,97568.72
2024-01-06T14:11:20.838Z,97574.78
2024-01-06T14:14:08.328Z,97578.41
2024-01-06T14:16:56.087Z,97580.91
2024-01-06T14:19:47.863Z,97571.34
2024-01-06T14:22:36.464Z,97576.63
2024-01-06T14:25:24.464Z,97576.75
2024-01-06T14:28:13.672Z,97579.38
2024-01-06T14:31:01.331Z,97576.06
2024-01-06T14:33:49.709Z,97577.03
2024-01-06T14:36:37.849Z,97577.19
2024-01-06T14:39:26.021Z,97580.91
2024-01-06T14:42:13.848Z,97584.53
2024-01-06T14:45:03.248Z,97587.44
2024-01-06T14:47:52.289Z,97585.06
2024-01-06T14:50:40.454Z,97582.72
2024-01-06T14:53:27.835Z,97589.13
2024-01-06T14:56:17.360Z,97587.59
2024-01-06T14:59:05.108Z,97585.25
2024-01-06T15:01:54.554Z,97587.19
2024-01-06T15:04:42.484Z,97587.44
2024-01-06T15:07:32.529Z,97598.53
2024-01-06T15:10:20.289Z,97599.09
2024-01-06T15:13:09.448Z,97595.22
2024-01-06T15:15:57.615Z,97594.81
2024-01-06T15:18:48.335Z,97599.66
2024-01-06T15:21:37.921Z,97601.03
2024-01-06T15:24:25.873Z,97609.34
2024-01-06T15:27:13.496Z,97610.75
2024-01-06T15:30:02.733Z,97621.53
2024-01-06T15:32:50.727Z,97618.47
2024-01-06T15:35:39.843Z,97620.69
2024-01-06T15:38:28.439Z,97622.88
2024-01-06T15:41:16.086Z,97623.16
2024-01-06T15:44:03.622Z,97624.25
2024-01-06T15:46:51.558Z,97634.22
2024-01-06T15:49:39.401Z,97629.22
2024-01-06T15:52:28.525Z,97629.47
2024-01-06T15:55:16.762Z,97627.97
2024-01-06T15:58:07.972Z,97636.13
2024-01-06T16:00:55.947Z,97631.84
2024-01-06T16:03:44.400Z,97642.50
2024-01-06T16:06:36.818Z,97639.16
2024-01-06T16:09:27.161Z,97636.66
2024-01-06T16:12:15.850Z,97648.28
2024-01-06T16:15:03.562Z,97644.00
2024-01-06T16:17:51.671Z,97649.38
2024-01-06T16:20:39.577Z,97647.69
2024-01-06T16:23:29.831Z,97655.72
2024-01-06T16:26:19.261Z,97655.03
2024-01-06T16:29:07.507Z,97655.03
2024-01-06T16:31:55.395Z,97662.22
2024-01-06T16:34:43.475Z,97664.00
2024-01-06T16:37:31.402Z,97673.72
2024-01-06T16:40:19.843Z,97668.44
2024-01-06T16:43:09.098Z,97660.69
2024-01-06T16:45:56.877Z,97670.38
2024-01-06T16:48:44.828Z,97663.44
2024-01-06T16:51:32.670Z,97663.44
2024-01-06T16:54:20.614Z,97667.03
2024-01-06T16:57:08.812Z,97666.09
2024-01-06T16:59:59.287Z,97660.81
2024-01-06T17:02:46.833Z,97654.84
2024-01-06T17:05:34.905Z,97659.13
2024-01-06T17:08:22.902Z,97670.63
2024-01-06T17:11:11.721Z,97684.75
2024-01-06T17:13:59.497Z,97686.53
2024-01-06T17:16:48.667Z,97686.66
2024-01-06T17:19:36.566Z,97686.66
2024-01-06T17:22:24.183Z,97690.25
2024-01-06T17:25:16.053Z,97687.63
2024-01-06T17:28:04.671Z,97688.59
2024-01-06T17:30:52.753Z,97698.16
2024-01-06T17:33:42.606Z,97695.53
2024-01-06T17:36:30.601Z,97704.38
2024-01-06T17:39:21.062Z,97704.50
2024-01-06T17:42:08.791Z,97701.88
2024-01-06T17:44:56.525Z,97702.69
2024-01-06T17:47:45.635Z,97706.28
2024-01-06T17:50:37.292Z,97701.03
2024-01-06T17:53:25.354Z,97705.31
2024-01-06T17:56:13.459Z,97707.16
2024-01-06T17:59:02.649Z,97704.38
2024-01-06T18:01:50.543Z,97703.66
2024-01-06T18:04:41.768Z,97707.00
2024-01-06T18:07:31.964Z,97706.16
2024-01-06T18:10:20.237Z,97706.28
2024-01-06T18:13:08.114Z,97707.16
2024-01-06T18:15:55.923Z,97708.22
2024-01-06T18:18:43.903Z,97707.41
2024-01-06T18:21:31.859Z,97710.97
2024-01-06T18:24:20.678Z,97702.41
2024-01-06T18:27:09.073Z,97716.50
2024-01-06T18:29:57.295Z,97711.09
2024-01-06T18:32:45.218Z,97706.81
2024-01-06T18:35:32.756Z,97712.06
2024-01-06T18:38:21.298Z,97715.66
2024-01-06T18:41:10.514Z,97718.31
2024-01-06T18:43:58.374Z,97723.56
2024-01-06T18:46:46.243Z,97719.25
2024-01-06T18:49:34.036Z,97722.84
2024-01-06T18:52:21.765Z,97712.31
2024-01-06T18:55:10.546Z,97716.91
2024-01-06T18:58:00.748Z,97723.09
2024-01-06T19:00:48.475Z,97721.44
2024-01-06T19:03:38.987Z,97715.34
2024-01-06T19:06:26.954Z,97715.34
2024-01-06T19:09:15.067Z,97710.22
2024-01-06T19:12:03.575Z,97721.69
2024-01-06T19:14:54.705Z,97716.44
2024-01-06T19:17:46.619Z,97725.31
2024-01-06T19:20:42.875Z,97721.81
2024-01-06T19:23:30.431Z,97719.19
2024-01-06T19:26:17.986Z,97725.31
2024-01-06T19:29:05.531Z,97720.03
2024-01-06T19:31:54.755Z,97722.53
2024-01-06T19:34:43.030Z,97724.19
2024-01-06T19:37:31.124Z,97718.94
2024-01-06T19:40:19.762Z,97725.03
2024-01-06T19:43:07.988Z,97721.44
2024-01-06T19:45:56.065Z,97716.19
2024-01-06T19:48:45.242Z,97726.69
2024-01-06T19:51:33.087Z,97727.53
2024-01-06T19:54:21.163Z,97717.16
2024-01-06T19:57:11.402Z,97718.94
2024-01-06T20:00:01.742Z,97725.03
2024-01-06T20:02:49.292Z,97727.81
2024-01-06T20:05:38.421Z,97731.38
2024-01-06T20:08:26.332Z,97725.31
2024-01-06T20:11:14.039Z,97729.72
2024-01-06T20:14:01.565Z,97724.59
2024-01-06T20:16:49.330Z,97720.31
2024-01-06T20:19:37.545Z,97725.56
2024-01-06T20:22:28.413Z,97728.31
2024-01-06T20:25:16.365Z,97719.59
2024-01-06T20:28:04.184Z,97717.94
2024-01-06T20:30:52.241Z,97718.88
2024-01-06T20:33:45.422Z,97715.56
2024-01-06T20:36:33.073Z,97720.81
2024-01-06T20:39:22.044Z,97720.94
2024-01-06T20:42:09.829Z,97716.66
2024-01-06T20:44:57.348Z,97710.69
2024-01-06T20:47:45.234Z,97709.97
2024-01-06T20:50:32.856Z,97704.03
2024-01-06T20:53:23.521Z,97711.06
2024-01-06T20:56:14.389Z,97708.44
2024-01-06T20:59:02.068Z,97711.06
2024-01-06T21:01:49.798Z,97709.41
2024-01-06T21:04:37.477Z,97708.69
2024-01-06T21:07:25.150Z,97703.56
2024-01-06T21:10:13.172Z,97714.06
2024-01-06T21:13:02.108Z,97713.22
2024-01-06T21:15:49.626Z,97714.31
2024-01-06T21:18:39.935Z,97702.97
2024-01-06T21:21:27.672Z,97713.47
2024-01-06T21:24:15.790Z,97719.56
2024-01-06T21:27:03.581Z,97714.44
2024-01-06T21:29:52.748Z,97717.06
2024-01-06T21:32:40.262Z,97714.56
2024-01-06T21:35:27.967Z,97712.06
2024-01-06T21:38:15.890Z,97720.06
2024-01-06T21:41:04.204Z,97718.41
2024-01-06T21:43:53.035Z,97716.63
2024-01-06T21:46:42.696Z,97713.28
2024-01-06T21:49:30.223Z,97725.47
2024-01-06T21:52:18.419Z,97729.91
2024-01-06T21:55:07.814Z,97727.28
2024-01-06T21:57:57.698Z,97724.78
2024-01-06T22:00:45.356Z,97729.91
2024-01-06T22:03:34.640Z,97723.06
2024-01-06T22:06:22.642Z,97728.34
2024-01-06T22:09:12.715Z,97728.34
2024-01-06T22:12:01.976Z,97733.59
2024-01-06T22:14:49.990Z,97733.59
2024-01-06T22:17:37.721Z,97732.78
2024-01-06T22:20:27.046Z,97729.31
2024-01-06T22:23:14.884Z,97723.34
2024-01-06T22:26:02.353Z,97727.78
2024-01-06T22:28:49.746Z,97725.97
2024-01-06T22:31:37.889Z,97726.94
2024-01-06T22:34:25.047Z,97729.69
2024-01-06T22:37:17.516Z,97723.59
2024-01-06T22:40:06.930Z,97727.19
2024-01-06T22:42:54.745Z,97732.44
2024-01-06T22:45:45.708Z,97721.94
2024-01-06T22:48:34.344Z,97729.09
2024-01-06T22:51:22.414Z,97723.84
2024-01-06T22:54:12.141Z,97731.72
2024-01-06T22:57:00.343Z,97738.91
2024-01-06T23:00:00.417Z,97736.28
2024-01-06T23:02:48.112Z,97739.88
2024-01-06T23:05:36.122Z,97745.94
2024-01-06T23:08:24.118Z,97741.53
2024-01-06T23:11:15.116Z,97739.72
2024-01-06T23:14:05.184Z,97749.53
2024-01-06T23:16:53.117Z,97751.31
2024-01-06T23:19:43.596Z,97742.50
2024-01-06T23:22:33.901Z,97754.78
2024-01-06T23:25:22.065Z,97756.56
2024-01-06T23:28:12.443Z,97763.50
2024-01-06T23:31:03.369Z,97760.88
2024-01-06T23:33:51.366Z,97766.13
2024-01-06T23:36:39.462Z,97760.88
2024-01-06T23:39:27.227Z,97760.03
2024-01-06T23:42:15.783Z,97765.28
2024-01-06T23:45:05.915Z,97761.69
2024-01-06T23:47:54.485Z,97768.59
2024-01-06T23:50:43.349Z,97764.19
2024-01-06T23:53:31.217Z,97777.22
2024-01-06T23:56:19.294Z,97771.94
2024-01-06T23:59:10.092Z,97778.06
